Time;durP1;ratioP1;P1;durP2;ratioP2;P2;SDS_P1;SDS_P2;PMS_P1;PMS_P2;Temp;Humidity;BMP_temperature;BMP_pressure;BME280_temperature;BME280_humidity;BME280_pressure;Samples;Min_cycle;Max_cycle;Signal;HPM_P1;HPM_P2
2022/03/25 01:14:29;;;;;;;108.18;59.78;;;;;;;;;;5006987;28;20050;-95
2022/03/25 02:31:15;;;;;;;62.03;41.38;;;;;;;;;;4956133;28;20035;-94
2022/03/25 02:50:32;;;;;;;;;;;;;;;;;;;;;
2022/03/25 02:53:15;;;;;;;40.78;28.23;;;;;;;;;;4988167;28;20046;-94
2022/03/25 02:55:54;;;;;;;;;;;;;;;;;;;;;
2022/03/25 03:09:11;;;;;;;43.83;31.63;;;;;;;;;;4782793;30;20051;-95
2022/03/25 03:12:10;;;;;;;40.58;30.60;;;;;;;;;;4841027;29;20076;-94
2022/03/25 03:15:16;;;;;;;37.55;27.23;;;;;;;;;;4891838;29;20240;-95
2022/03/25 03:18:23;;;;;;;37.50;29.02;;;;;;;;;;4902718;29;20533;-94
2022/03/25 03:23:39;;;;;;;28.77;22.10;;;;;;;;;;4886643;29;20044;-94
2022/03/25 04:17:24;;;;;;;;;;;;;;;;;;;;;
2022/03/25 04:44:51;;;;;;;59.75;38.55;;;;;;;;;;4996945;28;20042;-94
2022/03/25 04:50:13;;;;;;;72.50;41.95;;;;;;;;;;4968865;28;20129;-94
2022/03/25 04:52:47;;;;;;;75.15;42.15;;;;;;;;;;4963229;28;20044;-96
2022/03/25 04:55:31;;;;;;;80.68;44.13;;;;;;;;;;4964060;28;20112;-95
2022/03/25 05:04:55;;;;;;;;;;;;;;;;;;;;;
2022/03/25 05:10:31;;;;;;;56.45;35.83;;;;;;;;;;4862412;29;20048;-93
2022/03/25 05:13:02;;;;;;;49.20;33.20;;;;;;;;;;4889202;29;20091;-94
2022/03/25 05:27:02;;;;;;;63.78;37.88;;;;;;;;;;5829513;23;20140;-94
2022/03/25 05:29:34;;;;;;;66.47;39.80;;;;;;;;;;4998637;28;20512;-94
2022/03/25 05:32:03;;;;;;;64.55;38.13;;;;;;;;;;5000863;28;20042;-93
2022/03/25 05:55:08;;;;;;;55.45;35.15;;;;;;;;;;6029037;23;20024;-95
2022/03/25 07:01:11;;;;;;;;;;;;;;;;;;;;;
2022/03/25 07:30:50;;;;;;;62.08;40.55;;;;;;;;;;1346728;23;20381;-90
2022/03/25 07:33:16;;;;;;;57.72;37.05;;;;;;;;;;4998720;28;20061;-93
2022/03/25 07:35:42;;;;;;;56.65;35.58;;;;;;;;;;5013440;28;20041;-94
2022/03/25 07:38:09;;;;;;;53.65;35.63;;;;;;;;;;5002833;28;20048;-94
2022/03/25 07:40:35;;;;;;;48.22;32.92;;;;;;;;;;5002381;28;20045;-93
2022/03/25 07:43:01;;;;;;;48.80;35.35;;;;;;;;;;5018364;28;20128;-93
2022/03/25 07:48:41;;;;;;;48.13;32.60;;;;;;;;;;5005950;28;20056;-93
2022/03/25 07:51:10;;;;;;;49.45;33.05;;;;;;;;;;5012020;28;20049;-94
2022/03/25 07:53:39;;;;;;;46.17;32.33;;;;;;;;;;5021347;28;20046;-92
2022/03/25 07:56:05;;;;;;;47.83;32.58;;;;;;;;;;5018553;28;20045;-94
2022/03/25 07:58:32;;;;;;;48.45;32.92;;;;;;;;;;5021888;28;20041;-91
2022/03/25 08:01:01;;;;;;;43.58;32.30;;;;;;;;;;5020060;28;20037;-94
2022/03/25 08:03:30;;;;;;;48.08;32.03;;;;;;;;;;5003234;28;20072;-93
2022/03/25 08:05:56;;;;;;;45.17;32.75;;;;;;;;;;5018196;28;20091;-93
2022/03/25 08:08:22;;;;;;;40.55;30.65;;;;;;;;;;5019119;28;20138;-93
2022/03/25 08:10:55;;;;;;;46.20;32.75;;;;;;;;;;5017978;28;20037;-92
2022/03/25 08:13:24;;;;;;;46.25;31.80;;;;;;;;;;5004823;28;20037;-94
2022/03/25 08:15:50;;;;;;;44.25;32.13;;;;;;;;;;5018337;28;20045;-94
2022/03/25 08:18:16;;;;;;;46.88;32.42;;;;;;;;;;5017833;28;20100;-92
2022/03/25 08:20:44;;;;;;;47.30;31.67;;;;;;;;;;5017643;28;20110;-92
2022/03/25 08:27:48;;;;;;;45.05;30.33;;;;;;;;;;5017826;28;20041;-92
2022/03/25 08:28:45;;;;;;;44.35;28.83;;;;;;;;;;5017706;28;20103;-93
2022/03/25 08:31:11;;;;;;;44.53;28.65;;;;;;;;;;5001686;28;20084;-94
2022/03/25 08:33:38;;;;;;;45.58;29.02;;;;;;;;;;5002350;28;20050;-92
2022/03/25 08:36:06;;;;;;;43.38;29.92;;;;;;;;;;5002240;28;20041;-93
2022/03/25 08:38:33;;;;;;;36.63;26.88;;;;;;;;;;5002934;28;20045;-93
2022/03/25 08:40:59;;;;;;;38.47;26.20;;;;;;;;;;5017088;28;20075;-93
2022/03/25 08:43:26;;;;;;;41.35;26.42;;;;;;;;;;5000813;28;20052;-94
2022/03/25 08:45:52;;;;;;;40.47;28.05;;;;;;;;;;4997441;28;20077;-93
2022/03/25 08:48:27;;;;;;;40.70;26.95;;;;;;;;;;5017717;28;20049;-92
2022/03/25 08:50:54;;;;;;;36.75;26.60;;;;;;;;;;5014959;28;20484;-94
2022/03/25 08:53:20;;;;;;;41.83;27.23;;;;;;;;;;5017543;28;20341;-91
2022/03/25 08:55:58;;;;;;;38.53;26.67;;;;;;;;;;5005632;28;20071;-95
2022/03/25 08:58:29;;;;;;;38.78;26.35;;;;;;;;;;5002335;28;20034;-93
2022/03/25 09:00:58;;;;;;;41.70;26.48;;;;;;;;;;5017513;28;20437;-93
2022/03/25 09:03:24;;;;;;;37.85;25.77;;;;;;;;;;5017140;28;20091;-93
2022/03/25 09:05:50;;;;;;;36.22;26.65;;;;;;;;;;5017224;28;20049;-93
2022/03/25 09:08:17;;;;;;;35.65;27.55;;;;;;;;;;5016759;28;20042;-92
2022/03/25 09:10:44;;;;;;;37.58;26.27;;;;;;;;;;5016694;28;20092;-92
2022/03/25 09:13:12;;;;;;;36.03;25.98;;;;;;;;;;5017114;28;20049;-95
2022/03/25 09:15:38;;;;;;;37.80;28.05;;;;;;;;;;5009883;28;20042;-93
2022/03/25 09:18:10;;;;;;;36.58;26.65;;;;;;;;;;5016123;28;20429;-92
2022/03/25 09:20:39;;;;;;;42.47;26.67;;;;;;;;;;5034476;28;20121;-93
2022/03/25 09:23:11;;;;;;;38.38;27.02;;;;;;;;;;5017026;28;20041;-91
2022/03/25 09:25:40;;;;;;;38.17;25.13;;;;;;;;;;5005905;28;20041;-93
2022/03/25 09:28:12;;;;;;;38.22;25.30;;;;;;;;;;5021247;28;20095;-94
2022/03/25 09:30:42;;;;;;;39.97;24.70;;;;;;;;;;5018141;28;20052;-94
2022/03/25 09:33:22;;;;;;;33.30;23.48;;;;;;;;;;5021368;28;20089;-93
2022/03/25 09:35:50;;;;;;;34.08;23.50;;;;;;;;;;5022566;28;20077;-93
2022/03/25 09:38:19;;;;;;;35.58;22.83;;;;;;;;;;5027973;28;20045;-94
2022/03/25 09:41:20;;;;;;;30.65;21.77;;;;;;;;;;5025606;28;20042;-93
2022/03/25 09:44:07;;;;;;;34.03;21.65;;;;;;;;;;5021773;28;20041;-92
2022/03/25 09:47:10;;;;;;;;;;;;;;;;;;;;;
2022/03/25 09:50:21;;;;;;;32.00;20.42;;;;;;;;;;5010844;28;20057;-93
2022/03/25 09:53:20;;;;;;;32.65;21.55;;;;;;;;;;5017460;28;20125;-92
2022/03/25 09:56:22;;;;;;;32.03;21.67;;;;;;;;;;5011768;28;20030;-93
2022/03/25 09:59:11;;;;;;;33.17;20.13;;;;;;;;;;5026738;28;20166;-94
2022/03/25 10:02:09;;;;;;;34.35;20.80;;;;;;;;;;5026113;28;20038;-92
2022/03/25 10:04:45;;;;;;;32.42;20.70;;;;;;;;;;5014873;28;20093;-93
2022/03/25 10:10:14;;;;;;;26.92;17.40;;;;;;;;;;5014373;28;20049;-93
2022/03/25 10:12:50;;;;;;;28.60;17.85;;;;;;;;;;5014048;28;20057;-93
2022/03/25 10:15:38;;;;;;;;;;;;;;;;;;;;;
2022/03/25 10:18:08;;;;;;;28.40;17.45;;;;;;;;;;5023987;28;20078;-94
2022/03/25 10:20:37;;;;;;;30.05;18.35;;;;;;;;;;5010243;28;20053;-93
2022/03/25 10:23:08;;;;;;;28.15;17.52;;;;;;;;;;5008495;28;20408;-91
2022/03/25 10:25:40;;;;;;;28.55;18.00;;;;;;;;;;5007553;28;20137;-93
2022/03/25 10:28:27;;;;;;;28.55;17.20;;;;;;;;;;5021828;28;20088;-93
2022/03/25 10:31:20;;;;;;;25.33;16.17;;;;;;;;;;5022896;28;20070;-93
2022/03/25 10:33:57;;;;;;;31.73;17.27;;;;;;;;;;5003650;28;20054;-92
2022/03/25 10:36:25;;;;;;;28.23;15.70;;;;;;;;;;5003912;28;20038;-93
2022/03/25 10:39:01;;;;;;;23.33;13.95;;;;;;;;;;5000323;28;20075;-93
2022/03/25 10:41:51;;;;;;;22.85;13.98;;;;;;;;;;5022396;28;20135;-93
2022/03/25 10:44:19;;;;;;;25.42;16.55;;;;;;;;;;5004185;28;20133;-92
2022/03/25 10:46:54;;;;;;;26.55;15.95;;;;;;;;;;5018399;28;20037;-93
2022/03/25 10:49:20;;;;;;;24.40;15.65;;;;;;;;;;4998741;28;20055;-94
2022/03/25 10:51:56;;;;;;;25.30;15.18;;;;;;;;;;5012913;28;20057;-94
2022/03/25 10:54:23;;;;;;;25.60;15.57;;;;;;;;;;5013244;28;20042;-92
2022/03/25 10:57:08;;;;;;;22.13;13.70;;;;;;;;;;5016036;28;20053;-94
2022/03/25 10:59:35;;;;;;;25.75;14.57;;;;;;;;;;5017830;28;20484;-93
2022/03/25 11:02:04;;;;;;;26.60;13.20;;;;;;;;;;5012908;28;20085;-94
2022/03/25 11:04:33;;;;;;;24.92;14.27;;;;;;;;;;5013079;28;20053;-95
2022/03/25 11:07:03;;;;;;;21.92;11.93;;;;;;;;;;4997540;28;20041;-95
2022/03/25 11:09:32;;;;;;;19.63;10.32;;;;;;;;;;5016198;28;20057;-93
2022/03/25 11:12:00;;;;;;;19.15;11.38;;;;;;;;;;5014776;28;20054;-93
2022/03/25 11:14:35;;;;;;;28.83;14.82;;;;;;;;;;4999819;28;20042;-95
2022/03/25 11:17:07;;;;;;;24.60;13.35;;;;;;;;;;5014876;28;20477;-94
2022/03/25 11:19:37;;;;;;;31.58;14.20;;;;;;;;;;5021393;28;20046;-93
2022/03/25 11:22:04;;;;;;;24.77;14.02;;;;;;;;;;5023063;28;20103;-95
2022/03/25 11:24:36;;;;;;;22.52;13.55;;;;;;;;;;5005691;28;20417;-94
2022/03/25 11:27:17;;;;;;;24.33;13.80;;;;;;;;;;5001729;28;20129;-93
2022/03/25 11:29:44;;;;;;;23.60;14.00;;;;;;;;;;5001524;28;20045;-93
2022/03/25 11:32:17;;;;;;;29.65;15.88;;;;;;;;;;5014895;28;20078;-94
2022/03/25 11:34:58;;;;;;;30.42;16.75;;;;;;;;;;5015684;28;20045;-94
2022/03/25 11:37:25;;;;;;;33.50;17.42;;;;;;;;;;5016108;28;20081;-93
2022/03/25 11:40:10;;;;;;;31.00;17.13;;;;;;;;;;5001364;28;20057;-92
2022/03/25 11:42:40;;;;;;;31.02;16.90;;;;;;;;;;5015434;28;20050;-94
2022/03/25 11:45:25;;;;;;;30.70;16.23;;;;;;;;;;5016374;28;20066;-93
2022/03/25 11:48:00;;;;;;;26.38;15.40;;;;;;;;;;5014795;28;20034;-93
2022/03/25 11:50:29;;;;;;;25.23;16.05;;;;;;;;;;4998528;28;20046;-92
2022/03/25 11:52:56;;;;;;;28.33;15.25;;;;;;;;;;5014375;28;20045;-91
2022/03/25 11:55:22;;;;;;;28.27;16.20;;;;;;;;;;4998374;28;20053;-93
2022/03/25 11:57:48;;;;;;;27.00;15.98;;;;;;;;;;4998488;28;20068;-93
2022/03/25 12:00:24;;;;;;;25.48;14.90;;;;;;;;;;4982053;28;20050;-94
2022/03/25 12:03:03;;;;;;;30.10;17.50;;;;;;;;;;4980568;28;20050;-94
2022/03/25 12:05:29;;;;;;;27.83;18.13;;;;;;;;;;4998037;28;20038;-94
2022/03/25 12:08:21;;;;;;;28.38;16.65;;;;;;;;;;4987756;28;20104;-94
2022/03/25 12:10:55;;;;;;;33.03;19.58;;;;;;;;;;4981938;28;20053;-93
2022/03/25 12:13:29;;;;;;;30.83;18.08;;;;;;;;;;4987974;28;20038;-95
2022/03/25 12:16:06;;;;;;;30.67;19.35;;;;;;;;;;5007843;28;20042;-91
2022/03/25 12:18:42;;;;;;;31.30;17.98;;;;;;;;;;4987639;28;20105;-96
2022/03/25 12:21:21;;;;;;;29.90;18.20;;;;;;;;;;5003661;28;20038;-95
2022/03/25 12:23:59;;;;;;;27.73;17.05;;;;;;;;;;4985664;28;20129;-92
2022/03/25 12:26:32;;;;;;;35.28;18.92;;;;;;;;;;4998090;28;20046;-94
2022/03/25 12:29:09;;;;;;;28.73;18.05;;;;;;;;;;5008080;28;20042;-92
2022/03/25 12:31:47;;;;;;;30.05;18.40;;;;;;;;;;4989292;28;20049;-95
2022/03/25 12:34:22;;;;;;;28.73;18.73;;;;;;;;;;5252208;23;20272;31
2022/03/25 12:36:48;;;;;;;;;;;;;;;;;;4965568;28;19922;-93
2022/03/25 12:39:27;;;;;;;33.00;19.13;;;;;;;;;;4962744;29;19926;-92
2022/03/25 12:42:18;;;;;;;32.85;18.30;;;;;;;;;;4965546;29;20055;-92
2022/03/25 12:44:54;;;;;;;30.92;19.63;;;;;;;;;;4951598;29;20043;-94
2022/03/25 12:47:30;;;;;;;34.35;19.02;;;;;;;;;;4924560;29;20343;-94
2022/03/25 12:50:04;;;;;;;29.25;17.33;;;;;;;;;;4940267;29;20102;-95
2022/03/25 12:52:31;;;;;;;30.88;18.65;;;;;;;;;;4927398;29;20043;-85
2022/03/25 12:55:09;;;;;;;26.70;15.75;;;;;;;;;;4941670;29;20491;-94
2022/03/25 12:57:37;;;;;;;31.88;15.93;;;;;;;;;;4941535;29;20039;-93
2022/03/25 13:00:40;;;;;;;23.38;14.10;;;;;;;;;;4945813;29;20034;-90
2022/03/25 13:03:09;;;;;;;22.15;13.43;;;;;;;;;;4933951;29;20147;-93
2022/03/25 13:05:36;;;;;;;22.65;13.07;;;;;;;;;;4909068;29;20048;-93
2022/03/25 13:08:25;;;;;;;25.77;13.80;;;;;;;;;;4910172;29;20060;-91
2022/03/25 13:11:14;;;;;;;27.75;14.48;;;;;;;;;;4909053;29;20112;-90
2022/03/25 13:13:57;;;;;;;25.45;11.38;;;;;;;;;;4873197;29;20053;-93
2022/03/25 13:16:29;;;;;;;22.25;12.85;;;;;;;;;;4898109;29;20063;-92
2022/03/25 13:19:01;;;;;;;22.02;13.00;;;;;;;;;;4903033;29;20056;-92
2022/03/25 13:21:30;;;;;;;21.23;12.48;;;;;;;;;;4903385;29;20044;-92
2022/03/25 13:23:59;;;;;;;20.67;11.55;;;;;;;;;;4901980;29;20048;-91
2022/03/25 13:26:27;;;;;;;23.80;11.75;;;;;;;;;;4916398;29;20123;-90
2022/03/25 13:28:58;;;;;;;24.73;12.80;;;;;;;;;;4900441;29;20052;-93
2022/03/25 13:31:24;;;;;;;22.92;12.40;;;;;;;;;;4893516;29;20044;-89
2022/03/25 13:33:54;;;;;;;23.20;11.85;;;;;;;;;;4917143;29;20183;-94
2022/03/25 13:36:30;;;;;;;21.10;12.68;;;;;;;;;;4957909;28;20054;-91
2022/03/25 13:39:14;;;;;;;27.15;14.18;;;;;;;;;;4959072;28;20053;-94
2022/03/25 13:41:43;;;;;;;26.00;13.48;;;;;;;;;;4959902;28;20050;-92
2022/03/25 13:44:12;;;;;;;28.58;12.70;;;;;;;;;;4959778;28;20039;-92
2022/03/25 13:46:41;;;;;;;23.73;13.48;;;;;;;;;;4960669;28;20047;-93
2022/03/25 13:49:12;;;;;;;22.05;13.48;;;;;;;;;;4961028;28;20055;-92
2022/03/25 13:51:39;;;;;;;22.98;14.27;;;;;;;;;;4959008;28;20049;-92
2022/03/25 13:54:12;;;;;;;26.65;16.10;;;;;;;;;;4959178;28;20137;-93
2022/03/25 13:56:39;;;;;;;29.80;16.27;;;;;;;;;;4959170;28;20078;-93
2022/03/25 13:59:10;;;;;;;25.95;17.38;;;;;;;;;;4972179;28;20090;-92
2022/03/25 14:01:43;;;;;;;26.00;16.63;;;;;;;;;;4959287;28;20074;-91
2022/03/25 14:04:15;;;;;;;22.15;13.80;;;;;;;;;;4960209;28;20047;-93
2022/03/25 14:06:44;;;;;;;22.52;13.70;;;;;;;;;;4957825;28;20125;-92
2022/03/25 14:09:26;;;;;;;22.80;14.18;;;;;;;;;;4957100;28;20070;-92
2022/03/25 14:11:57;;;;;;;22.48;13.45;;;;;;;;;;4957701;28;20509;-91
2022/03/25 14:14:33;;;;;;;23.60;12.32;;;;;;;;;;4957716;28;20478;-92
2022/03/25 14:16:59;;;;;;;19.27;12.18;;;;;;;;;;4958052;28;20530;-92
2022/03/25 14:19:27;;;;;;;20.40;11.55;;;;;;;;;;4957574;28;20521;-93
2022/03/25 14:21:56;;;;;;;18.20;11.50;;;;;;;;;;4957547;28;20496;-92
2022/03/25 14:24:30;;;;;;;19.55;10.80;;;;;;;;;;4956973;28;20078;-93
2022/03/25 14:27:00;;;;;;;22.95;9.73;;;;;;;;;;4957683;28;20042;-92
2022/03/25 14:29:27;;;;;;;17.65;9.70;;;;;;;;;;4957445;28;20043;-90
2022/03/25 14:31:53;;;;;;;16.75;8.27;;;;;;;;;;4941537;28;20489;-91
2022/03/25 14:34:19;;;;;;;20.63;9.10;;;;;;;;;;4958559;28;20541;-91
2022/03/25 14:36:46;;;;;;;17.98;9.05;;;;;;;;;;4953684;29;20051;-90
2022/03/25 14:39:15;;;;;;;20.33;8.95;;;;;;;;;;4954966;29;20050;-91
2022/03/25 14:41:42;;;;;;;17.85;8.98;;;;;;;;;;4953629;29;20062;-90
2022/03/25 14:44:08;;;;;;;22.33;10.60;;;;;;;;;;4953463;28;20046;-91
2022/03/25 14:46:39;;;;;;;18.67;7.85;;;;;;;;;;4955683;29;20043;-91
2022/03/25 14:49:05;;;;;;;18.15;8.80;;;;;;;;;;4952241;29;20051;-91
2022/03/25 14:51:42;;;;;;;18.45;7.30;;;;;;;;;;4944550;29;20123;-93
2022/03/25 14:54:11;;;;;;;18.90;8.60;;;;;;;;;;4964886;28;20058;-92
2022/03/25 14:56:37;;;;;;;17.10;8.35;;;;;;;;;;4961683;29;20089;-92
2022/03/25 14:59:06;;;;;;;14.75;6.63;;;;;;;;;;4960626;29;20106;-92
2022/03/25 15:01:38;;;;;;;13.43;6.55;;;;;;;;;;4949008;29;20043;-92
2022/03/25 15:04:11;;;;;;;18.25;6.70;;;;;;;;;;4942674;28;20071;-90
2022/03/25 15:06:39;;;;;;;26.00;9.60;;;;;;;;;;4958107;29;20051;-90
2022/03/25 15:09:08;;;;;;;14.63;6.38;;;;;;;;;;4960324;29;20039;-93
2022/03/25 15:11:34;;;;;;;21.08;7.82;;;;;;;;;;4944726;29;20478;-91
2022/03/25 15:14:03;;;;;;;21.95;6.38;;;;;;;;;;4958938;28;20065;-91
2022/03/25 15:16:30;;;;;;;18.15;7.15;;;;;;;;;;4942063;29;20143;-85
2022/03/25 15:18:56;;;;;;;18.73;8.35;;;;;;;;;;4958050;29;20573;-90
2022/03/25 15:21:29;;;;;;;21.65;8.80;;;;;;;;;;4958460;29;20055;-90
2022/03/25 15:23:56;;;;;;;19.15;10.02;;;;;;;;;;4957055;29;20125;-92
2022/03/25 15:26:22;;;;;;;24.33;10.32;;;;;;;;;;4942137;29;20047;-91
2022/03/25 15:28:51;;;;;;;20.98;10.30;;;;;;;;;;4962006;29;20039;-91
2022/03/25 15:36:46;;;;;;;25.65;11.75;;;;;;;;;;4964399;29;20083;-91
2022/03/25 15:39:14;;;;;;;24.20;11.90;;;;;;;;;;4958739;29;20043;-93
2022/03/25 15:41:40;;;;;;;24.23;11.98;;;;;;;;;;4965367;29;20043;-91
2022/03/25 15:44:08;;;;;;;28.48;13.95;;;;;;;;;;4952297;28;20053;-91
2022/03/25 15:46:34;;;;;;;28.13;13.95;;;;;;;;;;4948623;29;20137;-90
2022/03/25 15:49:01;;;;;;;25.00;12.70;;;;;;;;;;4944280;29;20057;-92
2022/03/25 15:51:28;;;;;;;34.30;12.38;;;;;;;;;;4942550;29;20483;-93
2022/03/25 15:53:54;;;;;;;26.08;12.50;;;;;;;;;;4960264;29;20398;-93
2022/03/25 15:56:23;;;;;;;26.23;12.13;;;;;;;;;;4943432;29;20492;-93
2022/03/25 15:58:52;;;;;;;37.15;14.43;;;;;;;;;;4964978;29;20457;-92
2022/03/25 16:01:18;;;;;;;28.58;14.75;;;;;;;;;;4947978;29;20039;-92
2022/03/25 16:03:47;;;;;;;33.08;14.82;;;;;;;;;;4958516;28;20039;-92
2022/03/25 16:06:14;;;;;;;30.63;15.18;;;;;;;;;;4961262;29;20094;-90
2022/03/25 16:08:40;;;;;;;25.92;15.18;;;;;;;;;;4942574;29;20074;-85
2022/03/25 16:11:09;;;;;;;35.40;16.25;;;;;;;;;;4942787;29;20122;-92
2022/03/25 16:13:37;;;;;;;36.97;16.25;;;;;;;;;;4944168;29;20066;-91
2022/03/25 16:16:07;;;;;;;34.55;14.95;;;;;;;;;;4943040;29;20054;-91
2022/03/25 16:18:40;;;;;;;26.48;14.20;;;;;;;;;;4960499;29;20110;-92
2022/03/25 16:21:07;;;;;;;27.60;13.32;;;;;;;;;;4965830;29;20051;-91
2022/03/25 16:23:33;;;;;;;24.65;12.63;;;;;;;;;;4961910;29;20498;-92
2022/03/25 16:26:02;;;;;;;27.60;13.30;;;;;;;;;;4960916;29;20059;-93
2022/03/25 16:28:28;;;;;;;24.52;11.85;;;;;;;;;;4962761;29;20047;-92
2022/03/25 16:30:56;;;;;;;25.52;11.00;;;;;;;;;;4945300;29;20179;-91
2022/03/25 16:33:26;;;;;;;21.40;9.93;;;;;;;;;;4940645;29;20039;-91
2022/03/25 16:35:52;;;;;;;25.13;10.10;;;;;;;;;;4938846;29;20067;-91
2022/03/25 16:38:18;;;;;;;23.05;9.38;;;;;;;;;;4943007;29;20393;-91
2022/03/25 16:40:44;;;;;;;21.80;9.75;;;;;;;;;;4957744;29;20119;-93
2022/03/25 16:43:14;;;;;;;22.00;9.10;;;;;;;;;;4940178;29;20055;-93
2022/03/25 16:45:42;;;;;;;18.77;8.73;;;;;;;;;;4963651;28;20129;-93
2022/03/25 16:48:11;;;;;;;20.33;8.50;;;;;;;;;;4964832;29;20051;-93
2022/03/25 16:50:37;;;;;;;18.15;8.70;;;;;;;;;;4964085;29;20047;-92
2022/03/25 16:53:04;;;;;;;26.48;9.73;;;;;;;;;;4966011;29;20500;-91
2022/03/25 16:55:32;;;;;;;23.30;9.77;;;;;;;;;;4969923;29;20039;-92
2022/03/25 16:57:59;;;;;;;30.15;11.50;;;;;;;;;;4968985;29;20051;-93
2022/03/25 17:00:26;;;;;;;26.00;10.20;;;;;;;;;;4962128;29;20063;-93
2022/03/25 17:02:54;;;;;;;28.52;11.48;;;;;;;;;;4951956;29;20062;-93
2022/03/25 17:05:22;;;;;;;25.27;13.18;;;;;;;;;;4948054;29;20039;-93
2022/03/25 17:07:49;;;;;;;27.88;11.73;;;;;;;;;;4949802;29;20047;-91
2022/03/25 17:10:15;;;;;;;26.90;12.98;;;;;;;;;;4965137;29;20051;-93
2022/03/25 17:12:41;;;;;;;35.28;12.77;;;;;;;;;;4956336;29;20094;-93
2022/03/25 17:15:10;;;;;;;33.08;17.52;;;;;;;;;;4940508;29;20098;-91
2022/03/25 17:17:37;;;;;;;34.17;17.33;;;;;;;;;;4959300;29;20047;-93
2022/03/25 17:20:10;;;;;;;30.77;16.25;;;;;;;;;;4957904;29;20039;-91
2022/03/25 17:22:36;;;;;;;36.83;17.92;;;;;;;;;;4954961;29;20070;-94
2022/03/25 17:25:03;;;;;;;35.22;19.67;;;;;;;;;;4938563;29;20039;-93
2022/03/25 17:27:31;;;;;;;39.60;21.08;;;;;;;;;;4939110;29;20119;-94
2022/03/25 17:30:08;;;;;;;38.45;20.98;;;;;;;;;;4954679;29;20049;-92
2022/03/25 17:32:39;;;;;;;40.70;20.67;;;;;;;;;;4955065;29;20039;-94
2022/03/25 17:35:11;;;;;;;39.33;21.40;;;;;;;;;;4938888;29;20419;-93
2022/03/25 17:37:37;;;;;;;35.80;20.77;;;;;;;;;;4955397;29;20036;-93
2022/03/25 17:40:06;;;;;;;43.92;22.27;;;;;;;;;;4939987;29;20443;-92
2022/03/25 17:42:35;;;;;;;40.60;20.52;;;;;;;;;;4939441;29;20070;-92
2022/03/25 17:45:01;;;;;;;40.38;20.23;;;;;;;;;;4940290;29;20046;-93
2022/03/25 17:47:30;;;;;;;35.22;19.90;;;;;;;;;;4938936;29;20042;-94
2022/03/25 17:50:09;;;;;;;38.78;21.23;;;;;;;;;;4954888;29;20047;-93
2022/03/25 17:52:36;;;;;;;35.47;19.58;;;;;;;;;;4938960;29;20090;-91
2022/03/25 17:55:02;;;;;;;37.03;19.67;;;;;;;;;;4954048;28;20130;-93
2022/03/25 17:57:31;;;;;;;39.35;19.05;;;;;;;;;;4939480;29;20039;-92
2022/03/25 18:00:03;;;;;;;37.53;19.60;;;;;;;;;;4955782;29;20097;-92
2022/03/25 18:02:37;;;;;;;38.38;19.75;;;;;;;;;;4957936;29;20031;-91
2022/03/25 18:05:20;;;;;;;;;;;;;;;;;;;;;
2022/03/25 18:07:52;;;;;;;32.17;18.73;;;;;;;;;;4960835;29;20047;-93
2022/03/25 18:10:38;;;;;;;39.30;20.55;;;;;;;;;;4963357;29;20049;-93
2022/03/25 18:13:16;;;;;;;37.30;20.52;;;;;;;;;;4957103;29;20486;-93
2022/03/25 18:15:50;;;;;;;35.17;19.70;;;;;;;;;;4956696;29;20511;-94
2022/03/25 18:18:19;;;;;;;35.67;19.88;;;;;;;;;;4956892;29;20054;-92
2022/03/25 18:20:46;;;;;;;43.47;21.95;;;;;;;;;;4955997;29;20035;-91
2022/03/25 18:23:15;;;;;;;40.97;21.23;;;;;;;;;;4954801;29;20055;-88
2022/03/25 18:25:45;;;;;;;35.72;19.98;;;;;;;;;;4953997;28;20122;-89
2022/03/25 18:28:11;;;;;;;44.30;24.25;;;;;;;;;;4949758;29;20047;-92
2022/03/25 18:30:37;;;;;;;43.47;25.88;;;;;;;;;;4951733;29;20047;-91
2022/03/25 18:33:08;;;;;;;41.83;25.02;;;;;;;;;;4956844;29;20058;-93
2022/03/25 18:35:48;;;;;;;40.67;22.45;;;;;;;;;;4967138;28;20065;-93
2022/03/25 18:38:19;;;;;;;37.75;21.35;;;;;;;;;;4965675;29;20083;-92
2022/03/25 18:41:04;;;;;;;35.17;19.40;;;;;;;;;;4965082;29;20103;-92
2022/03/25 18:43:30;;;;;;;27.40;17.70;;;;;;;;;;4957798;29;20050;-91
2022/03/25 18:46:09;;;;;;;29.77;17.60;;;;;;;;;;4957862;28;20067;-94
2022/03/25 18:48:35;;;;;;;34.85;17.48;;;;;;;;;;4939399;29;20056;-94
2022/03/25 18:51:03;;;;;;;28.88;16.77;;;;;;;;;;4958141;29;20124;-93
2022/03/25 18:53:44;;;;;;;32.30;19.52;;;;;;;;;;4956258;29;20146;-94
2022/03/25 18:56:13;;;;;;;27.60;16.80;;;;;;;;;;4955442;28;20047;-95
2022/03/25 18:58:39;;;;;;;30.02;16.35;;;;;;;;;;4952741;29;20094;-91
2022/03/25 19:01:05;;;;;;;28.63;16.88;;;;;;;;;;4953892;29;20045;-89
2022/03/25 19:03:31;;;;;;;26.63;17.58;;;;;;;;;;4952759;29;20043;-92
2022/03/25 19:05:57;;;;;;;27.73;16.30;;;;;;;;;;4953566;29;20035;-90
2022/03/25 19:08:23;;;;;;;26.95;16.83;;;;;;;;;;4952583;29;20043;-93
2022/03/25 19:10:52;;;;;;;31.08;17.63;;;;;;;;;;4937833;29;20043;-91
2022/03/25 19:13:19;;;;;;;28.52;17.70;;;;;;;;;;4952983;29;20573;-91
2022/03/25 19:15:45;;;;;;;34.08;18.20;;;;;;;;;;4937665;29;20098;-92
2022/03/25 19:18:11;;;;;;;34.75;17.45;;;;;;;;;;4936590;29;20054;-92
2022/03/25 19:20:40;;;;;;;32.30;18.38;;;;;;;;;;4953589;29;20043;-92
2022/03/25 19:23:06;;;;;;;31.83;19.02;;;;;;;;;;4936511;29;20039;-94
2022/03/25 19:25:37;;;;;;;32.45;18.85;;;;;;;;;;4954834;29;20039;-92
2022/03/25 19:28:04;;;;;;;33.30;20.33;;;;;;;;;;4952069;29;20355;-91
2022/03/25 19:30:33;;;;;;;34.40;22.63;;;;;;;;;;4919102;29;20047;-94
2022/03/25 19:32:59;;;;;;;37.25;22.67;;;;;;;;;;4918184;29;20467;-93
2022/03/25 19:35:27;;;;;;;45.78;22.75;;;;;;;;;;4936020;29;20055;-91
2022/03/25 19:37:55;;;;;;;40.17;24.85;;;;;;;;;;4970447;28;20051;-91
2022/03/25 19:40:24;;;;;;;41.17;23.42;;;;;;;;;;4972644;28;20071;-93
2022/03/25 19:42:55;;;;;;;38.33;23.30;;;;;;;;;;4973376;28;20125;-92
2022/03/25 19:45:21;;;;;;;37.25;21.73;;;;;;;;;;4954682;28;20039;-92
2022/03/25 19:47:47;;;;;;;42.08;24.20;;;;;;;;;;4954621;28;20043;-91
2022/03/25 19:50:16;;;;;;;37.70;21.10;;;;;;;;;;4968276;28;20054;-92
2022/03/25 19:52:43;;;;;;;34.88;20.65;;;;;;;;;;4957819;29;20071;-93
2022/03/25 19:55:12;;;;;;;35.25;20.38;;;;;;;;;;4940366;29;20137;-92
2022/03/25 19:57:38;;;;;;;36.40;22.77;;;;;;;;;;4957088;29;20043;-93
2022/03/25 20:00:08;;;;;;;37.17;20.77;;;;;;;;;;4940647;29;20102;-93
2022/03/25 20:02:36;;;;;;;44.58;25.08;;;;;;;;;;4957116;29;20129;-92
2022/03/25 20:05:03;;;;;;;38.10;23.33;;;;;;;;;;4940414;29;20126;-93
2022/03/25 20:07:31;;;;;;;40.70;24.92;;;;;;;;;;4957181;29;20521;-92
2022/03/25 20:09:58;;;;;;;44.42;27.17;;;;;;;;;;4956560;29;20101;-92
2022/03/25 20:12:24;;;;;;;41.42;24.33;;;;;;;;;;4941217;29;20489;-91
2022/03/25 20:14:50;;;;;;;36.42;23.52;;;;;;;;;;4929060;29;20044;-92
2022/03/25 20:17:19;;;;;;;41.88;23.65;;;;;;;;;;4937848;29;20047;-93
2022/03/25 20:19:48;;;;;;;43.42;27.08;;;;;;;;;;4937604;29;20087;-92
2022/03/25 20:22:15;;;;;;;53.97;31.60;;;;;;;;;;4937884;29;20171;-94
2022/03/25 20:24:42;;;;;;;53.03;33.72;;;;;;;;;;4947525;29;20054;-92
2022/03/25 20:27:08;;;;;;;56.83;34.40;;;;;;;;;;4956624;29;20047;-96
2022/03/25 20:29:36;;;;;;;53.88;34.38;;;;;;;;;;4939985;29;20411;-92
2022/03/25 20:32:06;;;;;;;51.88;30.50;;;;;;;;;;4940379;29;20085;-92
2022/03/25 20:34:35;;;;;;;52.50;34.13;;;;;;;;;;4955229;29;20053;-92
2022/03/25 20:37:01;;;;;;;54.42;35.55;;;;;;;;;;4956048;29;20051;-94
2022/03/25 20:39:37;;;;;;;64.13;40.35;;;;;;;;;;4939360;29;20055;-91
2022/03/25 20:42:06;;;;;;;60.88;37.45;;;;;;;;;;4940441;29;20054;-92
2022/03/25 20:44:33;;;;;;;55.65;34.83;;;;;;;;;;4955939;29;20135;-90
2022/03/25 20:47:01;;;;;;;64.32;35.50;;;;;;;;;;4940373;29;20561;-92
2022/03/25 20:49:28;;;;;;;59.63;37.08;;;;;;;;;;4954707;28;20054;-90
2022/03/25 20:51:56;;;;;;;48.58;31.45;;;;;;;;;;4955993;29;20051;-93
2022/03/25 20:54:25;;;;;;;57.30;37.50;;;;;;;;;;4955943;29;20482;-90
2022/03/25 20:56:57;;;;;;;57.05;37.47;;;;;;;;;;4956048;29;20047;-93
2022/03/25 20:59:23;;;;;;;60.85;39.03;;;;;;;;;;4940232;29;20041;-93
2022/03/25 21:01:51;;;;;;;68.50;41.03;;;;;;;;;;4955918;29;20094;-94
2022/03/25 21:04:17;;;;;;;69.55;42.65;;;;;;;;;;4940278;29;20043;-94
2022/03/25 21:06:44;;;;;;;67.80;43.33;;;;;;;;;;4940354;29;20074;-92
2022/03/25 21:09:10;;;;;;;73.85;43.75;;;;;;;;;;4955855;29;20051;-93
2022/03/25 21:11:38;;;;;;;79.15;46.15;;;;;;;;;;4940889;29;20050;-92
2022/03/25 21:14:07;;;;;;;72.05;44.40;;;;;;;;;;4938928;29;20103;-94
2022/03/25 21:16:36;;;;;;;81.50;46.85;;;;;;;;;;4939963;29;20427;-91
2022/03/25 21:19:02;;;;;;;77.65;46.38;;;;;;;;;;4954074;29;20313;-94
2022/03/25 21:21:31;;;;;;;73.50;44.70;;;;;;;;;;4955570;29;20043;-93
2022/03/25 21:24:00;;;;;;;67.13;42.22;;;;;;;;;;4951549;29;20035;-92
2022/03/25 21:26:29;;;;;;;67.13;40.97;;;;;;;;;;4936632;29;20464;-94
2022/03/25 21:28:58;;;;;;;70.25;43.72;;;;;;;;;;4921350;29;20365;-91
2022/03/25 21:31:24;;;;;;;72.22;44.45;;;;;;;;;;4919715;29;20040;-91
2022/03/25 21:33:52;;;;;;;72.88;44.35;;;;;;;;;;4935218;29;20036;-90